Time;durP1;ratioP1;P1;durP2;ratioP2;P2;SDS_P1;SDS_P2;PMS_P1;PMS_P2;Temp;Humidity;BMP_temperature;BMP_pressure;BME280_temperature;BME280_humidity;BME280_pressure;Samples;Min_cycle;Max_cycle;Signal;HPM_P1;HPM_P2
2022/04/23 00:03:10;;;;;;;21.13;9.18;;;;;;;;;;10392880;28;20033;-70
2022/04/23 00:08:14;;;;;;;17.92;7.28;;;;;;;;;;10396171;28;20125;-70
2022/04/23 00:13:17;;;;;;;19.05;7.40;;;;;;;;;;10396746;28;20124;-70
2022/04/23 00:18:21;;;;;;;23.48;9.90;;;;;;;;;;10398305;28;20429;-71
2022/04/23 00:23:25;;;;;;;27.02;9.98;;;;;;;;;;10396128;28;20095;-71
2022/04/23 00:28:29;;;;;;;21.65;9.40;;;;;;;;;;10371441;28;20152;-71
2022/04/23 00:33:33;;;;;;;17.33;7.95;;;;;;;;;;10395117;28;20029;-73
2022/04/23 00:38:36;;;;;;;25.25;10.98;;;;;;;;;;10393985;28;20235;-72
2022/04/23 00:43:38;;;;;;;24.55;10.02;;;;;;;;;;10391593;28;20057;-72
2022/04/23 00:48:43;;;;;;;24.40;10.13;;;;;;;;;;10395084;28;20052;-71
2022/04/23 00:53:46;;;;;;;20.85;9.05;;;;;;;;;;10397683;28;20030;-72
2022/04/23 00:58:49;;;;;;;;;;;;;;;;;;10380294;28;20502;-72
2022/04/23 01:03:54;;;;;;;21.50;9.00;;;;;;;;;;10394454;28;20055;-72
2022/04/23 01:08:58;;;;;;;24.85;9.95;;;;;;;;;;10394762;28;20124;-73
2022/04/23 01:14:01;;;;;;;23.42;9.93;;;;;;;;;;10396670;28;20032;-71
2022/04/23 01:19:06;;;;;;;24.80;9.20;;;;;;;;;;10391853;28;20041;-71
2022/04/23 01:24:10;;;;;;;26.10;9.93;;;;;;;;;;10398348;28;20057;-73
2022/04/23 01:29:13;;;;;;;25.20;10.15;;;;;;;;;;10403957;28;20421;-71
2022/04/23 01:34:16;;;;;;;22.42;9.88;;;;;;;;;;10388030;28;20340;-70
2022/04/23 01:39:20;;;;;;;21.23;9.23;;;;;;;;;;10386068;28;20041;-71
2022/04/23 01:44:22;;;;;;;;;;;;;;;;;;10402353;28;20044;-71
2022/04/23 01:49:25;;;;;;;10.90;5.70;;;;;;;;;;10402492;28;20069;-70
2022/04/23 01:54:30;;;;;;;24.10;10.03;;;;;;;;;;10403797;28;20215;-71
2022/04/23 01:59:32;;;;;;;;;;;;;;;;;;10405205;28;20488;-70
2022/04/23 02:04:36;;;;;;;17.65;8.07;;;;;;;;;;10404057;28;20292;-70
2022/04/23 02:09:41;;;;;;;20.25;7.32;;;;;;;;;;10384508;28;20496;-70
2022/04/23 02:14:44;;;;;;;;;;;;;;;;;;10402238;28;20034;-71
2022/04/23 02:19:47;;;;;;;23.77;9.13;;;;;;;;;;10383200;28;19964;-70
2022/04/23 02:24:51;;;;;;;17.77;7.75;;;;;;;;;;10383243;28;20406;-71
2022/04/23 02:29:54;;;;;;;;;;;;;;;;;;10400398;28;20044;-70
2022/04/23 02:34:57;;;;;;;18.85;8.40;;;;;;;;;;10381837;28;19960;-68
2022/04/23 02:40:01;;;;;;;18.85;7.78;;;;;;;;;;10381672;28;20071;-70
2022/04/23 02:45:04;;;;;;;15.70;6.38;;;;;;;;;;10402856;28;20033;-70
2022/04/23 02:50:09;;;;;;;21.40;9.73;;;;;;;;;;10385075;28;20079;-71
2022/04/23 02:55:14;;;;;;;23.63;9.63;;;;;;;;;;10401907;28;20846;-71
2022/04/23 03:00:16;;;;;;;;;;;;;;;;;;10402447;28;20049;-71
2022/04/23 03:05:19;;;;;;;21.80;8.85;;;;;;;;;;10403094;28;19979;-70
2022/04/23 03:10:24;;;;;;;20.75;8.90;;;;;;;;;;10402949;28;20048;-68
2022/04/23 03:15:27;;;;;;;;;;;;;;;;;;10402832;28;20053;-70
2022/04/23 03:20:30;;;;;;;9.30;4.45;;;;;;;;;;10419160;22;20062;-70
2022/04/23 03:25:34;;;;;;;18.30;7.33;;;;;;;;;;10432105;28;20113;-68
2022/04/23 03:30:37;;;;;;;24.83;9.23;;;;;;;;;;10422378;28;20060;-69
2022/04/23 03:35:41;;;;;;;18.83;7.03;;;;;;;;;;10447490;28;20081;-68
2022/04/23 03:40:48;;;;;;;14.07;6.27;;;;;;;;;;10438251;28;20033;-69
2022/04/23 03:45:51;;;;;;;22.00;8.73;;;;;;;;;;10423337;28;20033;-69
2022/04/23 03:50:54;;;;;;;18.80;7.95;;;;;;;;;;10441160;28;20044;-69
2022/04/23 03:55:58;;;;;;;20.10;7.47;;;;;;;;;;10421717;28;20291;-70
2022/04/23 04:01:03;;;;;;;12.20;4.35;;;;;;;;;;10438204;28;20459;-67
2022/04/23 04:06:06;;;;;;;9.80;4.60;;;;;;;;;;10441043;28;20509;-69
2022/04/23 04:11:11;;;;;;;17.37;6.37;;;;;;;;;;10423689;28;20473;-69
2022/04/23 04:16:15;;;;;;;15.70;5.95;;;;;;;;;;10436498;28;20056;-67
2022/04/23 04:21:19;;;;;;;16.10;7.07;;;;;;;;;;10417245;28;20044;-69
2022/04/23 04:26:25;;;;;;;21.25;8.98;;;;;;;;;;10427894;28;20033;-67
2022/04/23 04:36:48;;;;;;;26.65;10.40;;;;;;;;;;10433825;28;20324;-67
2022/04/23 04:41:52;;;;;;;24.47;9.23;;;;;;;;;;10417290;28;20075;-68
2022/04/23 04:46:55;;;;;;;21.15;8.35;;;;;;;;;;10431331;28;20091;-69
2022/04/23 04:51:58;;;;;;;16.25;5.45;;;;;;;;;;10415912;28;20132;-70
2022/04/23 04:57:02;;;;;;;18.25;6.70;;;;;;;;;;10436754;28;20059;-68
2022/04/23 05:02:06;;;;;;;17.33;7.40;;;;;;;;;;10431485;28;20444;-68
2022/04/23 05:07:10;;;;;;;19.73;6.65;;;;;;;;;;10430406;28;20038;-68
2022/04/23 05:12:15;;;;;;;28.70;8.73;;;;;;;;;;10449186;28;20044;-67
2022/04/23 05:17:23;;;;;;;12.40;5.50;;;;;;;;;;10446763;28;20106;-68
2022/04/23 05:22:26;;;;;;;9.88;4.47;;;;;;;;;;10428280;28;20072;-68
2022/04/23 05:27:31;;;;;;;14.10;5.47;;;;;;;;;;10428702;28;20232;-70
2022/04/23 05:32:33;;;;;;;;;;;;;;;;;;10429215;28;20037;-68
2022/04/23 05:37:37;;;;;;;16.00;6.00;;;;;;;;;;10425134;28;19935;-67
2022/04/23 05:42:41;;;;;;;8.73;2.85;;;;;;;;;;10432069;28;20040;-68
2022/04/23 05:47:44;;;;;;;16.95;7.05;;;;;;;;;;10444792;28;20264;-69
2022/04/23 05:52:47;;;;;;;12.83;4.97;;;;;;;;;;10430683;28;20259;-67
2022/04/23 05:57:51;;;;;;;16.85;7.30;;;;;;;;;;10445327;28;20037;-69
2022/04/23 06:02:54;;;;;;;12.00;4.47;;;;;;;;;;10453211;28;20033;-69
2022/04/23 06:07:58;;;;;;;20.35;6.70;;;;;;;;;;10460510;28;20040;-69
2022/04/23 06:13:02;;;;;;;16.13;6.63;;;;;;;;;;10430165;28;20113;-68
2022/04/23 06:18:05;;;;;;;;;;;;;;;;;;10437430;28;20550;-69
2022/04/23 06:23:08;;;;;;;8.65;4.15;;;;;;;;;;10418190;28;19928;-68
2022/04/23 06:28:12;;;;;;;10.95;4.40;;;;;;;;;;10412911;28;20033;-69
2022/04/23 06:33:17;;;;;;;13.70;4.03;;;;;;;;;;10428138;28;20481;-70
2022/04/23 06:38:20;;;;;;;14.38;5.32;;;;;;;;;;10416501;28;20041;-68
2022/04/23 06:43:24;;;;;;;15.32;6.07;;;;;;;;;;10435570;28;20036;-68
2022/04/23 06:48:27;;;;;;;18.75;6.20;;;;;;;;;;10437462;28;20036;-67
2022/04/23 06:53:30;;;;;;;9.77;4.30;;;;;;;;;;10441987;28;20087;-66
2022/04/23 06:58:35;;;;;;;18.98;7.10;;;;;;;;;;10444517;28;20033;-68
2022/04/23 07:03:37;;;;;;;;;;;;;;;;;;10429096;28;20208;-68
2022/04/23 07:08:40;;;;;;;12.35;6.25;;;;;;;;;;10417155;28;19967;-68
2022/04/23 07:13:49;;;;;;;18.05;8.60;;;;;;;;;;10449828;28;20041;-68
2022/04/23 07:18:52;;;;;;;14.68;5.25;;;;;;;;;;10434395;28;20064;-68
2022/04/23 07:24:05;;;;;;;18.95;7.63;;;;;;;;;;10418935;28;20091;-68
2022/04/23 07:29:10;;;;;;;17.83;7.17;;;;;;;;;;10433327;28;20037;-68
2022/04/23 07:39:36;;;;;;;14.52;4.15;;;;;;;;;;10435341;28;20474;-69
2022/04/23 07:44:41;;;;;;;15.93;7.60;;;;;;;;;;10434408;28;20041;-69
2022/04/23 07:49:44;;;;;;;19.80;7.32;;;;;;;;;;10430942;28;20040;-68
2022/04/23 07:54:48;;;;;;;13.38;5.43;;;;;;;;;;10432232;28;20495;-67
2022/04/23 07:59:52;;;;;;;18.00;6.67;;;;;;;;;;10424660;28;20472;-68
2022/04/23 08:04:54;;;;;;;17.38;6.65;;;;;;;;;;10437357;28;20063;-67
2022/04/23 08:09:57;;;;;;;16.65;6.32;;;;;;;;;;10418441;28;20144;-69
2022/04/23 08:15:01;;;;;;;14.07;5.03;;;;;;;;;;10423995;28;20471;-70
2022/04/23 08:20:05;;;;;;;13.40;5.60;;;;;;;;;;10437443;28;20036;-69
2022/04/23 08:25:08;;;;;;;20.23;8.60;;;;;;;;;;10421048;28;20186;-67
2022/04/23 08:35:34;;;;;;;15.25;6.75;;;;;;;;;;10431917;28;20033;-68
2022/04/23 08:40:40;;;;;;;21.40;8.35;;;;;;;;;;10416454;28;20049;-69
2022/04/23 08:45:44;;;;;;;18.58;7.13;;;;;;;;;;10428773;28;20033;-67
2022/04/23 08:50:50;;;;;;;15.10;6.93;;;;;;;;;;10432093;28;20099;-67
2022/04/23 08:55:53;;;;;;;14.60;6.10;;;;;;;;;;10430627;28;20037;-67
2022/04/23 09:00:57;;;;;;;13.48;5.55;;;;;;;;;;10434181;28;20040;-66
2022/04/23 09:06:00;;;;;;;14.75;7.25;;;;;;;;;;10419018;28;20505;-68
2022/04/23 09:11:03;;;;;;;12.03;5.50;;;;;;;;;;10432075;28;20661;-68
2022/04/23 09:27:03;;;;;;;6.97;3.35;;;;;;;;;;10337808;28;20410;-73
2022/04/23 09:32:12;;;;;;;12.98;6.20;;;;;;;;;;10366004;28;20038;-74
2022/04/23 09:38:11;;;;;;;11.93;5.72;;;;;;;;;;10351729;28;20046;-73
2022/04/23 09:42:58;;;;;;;10.60;5.63;;;;;;;;;;10356017;28;20131;-73
2022/04/23 09:48:16;;;;;;;14.05;6.70;;;;;;;;;;10359007;28;20041;-74
2022/04/23 09:53:19;;;;;;;7.88;4.22;;;;;;;;;;10340826;28;20050;-74
2022/04/23 09:58:22;;;;;;;11.55;6.53;;;;;;;;;;10352265;28;20413;-75
2022/04/23 10:03:29;;;;;;;14.70;7.07;;;;;;;;;;10372270;28;20191;-71
2022/04/23 10:08:33;;;;;;;11.07;5.85;;;;;;;;;;10381952;28;20453;-72
2022/04/23 10:13:36;;;;;;;14.38;7.63;;;;;;;;;;10361064;28;20056;-73
2022/04/23 10:18:43;;;;;;;12.77;7.32;;;;;;;;;;10378616;28;20095;-72
2022/04/23 10:23:53;;;;;;;17.70;8.90;;;;;;;;;;10357486;28;20038;-73
2022/04/23 10:28:57;;;;;;;21.15;9.95;;;;;;;;;;10362246;28;20038;-72
2022/04/23 10:34:01;;;;;;;24.30;10.85;;;;;;;;;;10361073;28;20145;-71
2022/04/23 10:39:20;;;;;;;27.63;12.95;;;;;;;;;;10381791;28;20034;-72
2022/04/23 10:44:23;;;;;;;24.25;11.85;;;;;;;;;;10371881;28;20129;-71
2022/04/23 10:49:27;;;;;;;23.10;11.45;;;;;;;;;;10360328;28;20499;-69
2022/04/23 10:54:47;;;;;;;21.92;10.32;;;;;;;;;;10361808;28;20475;-72
2022/04/23 10:59:52;;;;;;;21.60;10.85;;;;;;;;;;10356559;28;20101;-72
2022/04/23 11:12:14;;;;;;;23.83;11.25;;;;;;;;;;10357354;28;20057;-71
2022/04/23 11:16:03;;;;;;;20.83;10.50;;;;;;;;;;10361126;28;20049;-71
2022/04/23 11:21:08;;;;;;;21.52;10.40;;;;;;;;;;10354468;28;20085;-72
2022/04/23 11:26:12;;;;;;;25.67;11.50;;;;;;;;;;10357030;28;20099;-72
2022/04/23 11:31:17;;;;;;;19.40;9.27;;;;;;;;;;10363565;28;20550;-70
2022/04/23 11:36:26;;;;;;;20.50;11.05;;;;;;;;;;10348646;28;20130;-70
2022/04/23 11:41:29;;;;;;;20.92;10.40;;;;;;;;;;10366455;28;20486;-73
2022/04/23 11:46:40;;;;;;;23.33;10.30;;;;;;;;;;10372503;28;20038;-69
2022/04/23 11:51:48;;;;;;;20.95;10.70;;;;;;;;;;10378956;28;20673;-72
2022/04/23 11:56:51;;;;;;;22.95;12.10;;;;;;;;;;10370836;28;20084;-71
2022/04/23 12:01:53;;;;;;;25.77;11.95;;;;;;;;;;10366347;28;20053;-70
2022/04/23 12:07:00;;;;;;;22.80;11.88;;;;;;;;;;10377195;28;20083;-71
2022/04/23 12:12:06;;;;;;;20.90;11.13;;;;;;;;;;10352467;28;20053;-71
2022/04/23 12:17:09;;;;;;;23.75;11.88;;;;;;;;;;10374105;28;20053;-71
2022/04/23 12:22:22;;;;;;;27.02;13.02;;;;;;;;;;10372149;28;20060;-71
2022/04/23 12:27:24;;;;;;;19.42;11.27;;;;;;;;;;10374879;28;20124;-72
2022/04/23 12:43:21;;;;;;;22.13;11.18;;;;;;;;;;10366097;28;20034;-71
2022/04/23 12:48:24;;;;;;;20.33;9.90;;;;;;;;;;10376779;28;20128;-72
2022/04/23 12:53:37;;;;;;;22.83;12.48;;;;;;;;;;10357636;28;20066;-70
2022/04/23 12:58:40;;;;;;;23.73;11.82;;;;;;;;;;10349047;28;20409;-71
2022/04/23 13:03:44;;;;;;;25.52;12.13;;;;;;;;;;10356084;28;20046;-71
2022/04/23 13:08:58;;;;;;;23.75;12.60;;;;;;;;;;10345237;28;20375;-71
2022/04/23 13:14:03;;;;;;;25.42;11.77;;;;;;;;;;10327236;28;20073;-71
2022/04/23 13:19:06;;;;;;;21.38;10.95;;;;;;;;;;10347457;28;20121;-71
2022/04/23 13:24:10;;;;;;;;;;;;;;;;;;10355367;28;20568;-70
2022/04/23 13:29:15;;;;;;;23.45;10.48;;;;;;;;;;10366755;28;20008;-74
2022/04/23 13:34:18;;;;;;;20.95;10.27;;;;;;;;;;10379134;28;20106;-74
2022/04/23 13:39:21;;;;;;;17.90;9.98;;;;;;;;;;10356963;28;20037;-75
2022/04/23 13:44:26;;;;;;;20.10;9.82;;;;;;;;;;10357030;28;20124;-73
2022/04/23 13:49:28;;;;;;;21.65;10.98;;;;;;;;;;10366243;28;20211;-74
2022/04/23 13:54:32;;;;;;;23.95;12.43;;;;;;;;;;10372993;28;20120;-74
2022/04/23 13:59:37;;;;;;;21.38;11.50;;;;;;;;;;10379595;28;20053;-74
2022/04/23 14:10:08;;;;;;;24.55;11.68;;;;;;;;;;10362466;28;20041;-74
2022/04/23 14:15:13;;;;;;;20.17;10.73;;;;;;;;;;10355734;28;20598;-75
2022/04/23 14:20:17;;;;;;;19.23;9.55;;;;;;;;;;10354106;28;20045;-75
2022/04/23 14:25:20;;;;;;;20.27;10.55;;;;;;;;;;10356647;28;20460;-74
2022/04/23 14:30:25;;;;;;;20.02;10.60;;;;;;;;;;10373944;28;20521;-71
2022/04/23 14:35:27;;;;;;;22.10;10.95;;;;;;;;;;10358069;28;20485;-73
2022/04/23 14:40:31;;;;;;;19.13;10.02;;;;;;;;;;10353178;28;20084;-74
2022/04/23 14:45:38;;;;;;;21.83;11.35;;;;;;;;;;10355880;28;20141;-73
2022/04/23 14:56:01;;;;;;;22.00;10.13;;;;;;;;;;10355570;28;20046;-72
2022/04/23 15:01:05;;;;;;;23.73;11.60;;;;;;;;;;10371234;28;20036;-73
2022/04/23 15:06:08;;;;;;;24.70;11.68;;;;;;;;;;10375701;28;20038;-73
2022/04/23 15:11:12;;;;;;;23.37;9.87;;;;;;;;;;10358982;28;20529;-73
2022/04/23 15:16:16;;;;;;;20.25;9.30;;;;;;;;;;10349484;28;20313;-74
2022/04/23 15:21:19;;;;;;;20.80;11.20;;;;;;;;;;10342157;28;20510;-73
2022/04/23 15:26:26;;;;;;;22.15;11.55;;;;;;;;;;10344484;28;20041;-74
2022/04/23 15:31:30;;;;;;;23.83;10.87;;;;;;;;;;10356567;28;20156;-73
2022/04/23 15:36:34;;;;;;;24.77;11.50;;;;;;;;;;10356355;28;20046;-73
2022/04/23 15:41:37;;;;;;;19.90;10.63;;;;;;;;;;10351212;28;20049;-75
2022/04/23 15:46:42;;;;;;;21.98;10.68;;;;;;;;;;10352665;28;20708;-74
2022/04/23 15:51:44;;;;;;;20.30;10.88;;;;;;;;;;10367872;28;20133;-73
2022/04/23 15:56:47;;;;;;;26.10;12.27;;;;;;;;;;10346210;28;20072;-73
2022/04/23 16:01:51;;;;;;;21.60;10.57;;;;;;;;;;10360106;28;20116;-73
2022/04/23 16:06:54;;;;;;;22.40;9.52;;;;;;;;;;10355077;28;20049;-73
2022/04/23 16:11:57;;;;;;;21.25;7.85;;;;;;;;;;10362111;28;20056;-74
2022/04/23 16:17:01;;;;;;;22.73;9.90;;;;;;;;;;10349803;28;20524;-73
2022/04/23 16:22:04;;;;;;;17.52;8.73;;;;;;;;;;10381354;28;20033;-71
2022/04/23 16:27:08;;;;;;;22.85;9.18;;;;;;;;;;10367803;28;20046;-72
2022/04/23 16:32:13;;;;;;;21.15;8.10;;;;;;;;;;10368437;28;20038;-72
2022/04/23 16:48:02;;;;;;;15.43;7.68;;;;;;;;;;10347451;28;20066;-73
2022/04/23 16:53:05;;;;;;;18.20;7.80;;;;;;;;;;10350763;28;20108;-73
2022/04/23 16:58:08;;;;;;;14.00;6.13;;;;;;;;;;10354832;28;20056;-74
2022/04/23 17:03:12;;;;;;;22.65;9.60;;;;;;;;;;10374690;28;20064;-74
2022/04/23 17:08:15;;;;;;;18.65;8.45;;;;;;;;;;10344061;28;20117;-73
2022/04/23 17:13:18;;;;;;;24.00;9.97;;;;;;;;;;10351766;28;20041;-75
2022/04/23 17:18:22;;;;;;;23.63;10.27;;;;;;;;;;10368234;28;20584;-74
2022/04/23 17:23:25;;;;;;;25.40;10.57;;;;;;;;;;10363270;28;20129;-73
2022/04/23 17:28:28;;;;;;;21.20;9.27;;;;;;;;;;10372117;28;20033;-73
2022/04/23 17:33:33;;;;;;;23.45;9.27;;;;;;;;;;10349605;28;20042;-74
2022/04/23 17:43:58;;;;;;;27.25;11.18;;;;;;;;;;10347944;28;20595;-72
2022/04/23 17:49:03;;;;;;;26.63;11.25;;;;;;;;;;10366275;28;20512;-72
2022/04/23 17:54:06;;;;;;;24.35;11.02;;;;;;;;;;10369728;28;20735;-71
2022/04/23 17:59:18;;;;;;;27.13;11.65;;;;;;;;;;10352495;28;20121;-71
2022/04/23 18:10:02;;;;;;;27.88;11.02;;;;;;;;;;10247039;28;21132;-72
2022/04/23 18:15:05;;;;;;;25.20;10.82;;;;;;;;;;10306462;28;20058;-73
2022/04/23 18:20:10;;;;;;;29.73;13.35;;;;;;;;;;10369184;28;20674;-76
2022/04/23 18:25:13;;;;;;;27.95;12.05;;;;;;;;;;10377669;28;20054;-73
2022/04/23 18:30:16;;;;;;;12.95;5.50;;;;;;;;;;10356838;28;20034;-72
2022/04/23 18:35:20;;;;;;;26.60;11.87;;;;;;;;;;10369628;28;20060;-73
2022/04/23 18:40:23;;;;;;;28.00;11.77;;;;;;;;;;10382016;28;20401;-73
2022/04/23 18:45:26;;;;;;;29.67;11.67;;;;;;;;;;10363165;28;20549;-70
2022/04/23 18:50:31;;;;;;;30.08;12.57;;;;;;;;;;10356877;28;20498;-72
2022/04/23 18:55:35;;;;;;;28.08;11.55;;;;;;;;;;10372355;28;20030;-70
2022/04/23 19:00:38;;;;;;;25.40;10.88;;;;;;;;;;10370883;28;20119;-71
2022/04/23 19:05:43;;;;;;;28.65;11.63;;;;;;;;;;10361811;28;20057;-71
2022/04/23 19:10:46;;;;;;;30.75;12.98;;;;;;;;;;10345328;28;20494;-72
2022/04/23 19:15:49;;;;;;;30.77;11.50;;;;;;;;;;10344333;28;20038;-71
2022/04/23 19:31:39;;;;;;;26.65;11.63;;;;;;;;;;10352409;28;20375;-70
2022/04/23 19:36:44;;;;;;;29.30;10.25;;;;;;;;;;10364275;28;20030;-71
2022/04/23 19:41:47;;;;;;;34.78;11.23;;;;;;;;;;10369959;28;20116;-72
2022/04/23 19:46:50;;;;;;;31.27;11.47;;;;;;;;;;10378687;28;20041;-72
2022/04/23 19:51:59;;;;;;;29.37;12.20;;;;;;;;;;10359779;28;20119;-71
2022/04/23 19:57:02;;;;;;;30.90;12.60;;;;;;;;;;10368944;28;20033;-73
2022/04/23 20:02:05;;;;;;;33.42;12.07;;;;;;;;;;10368081;28;20503;-72
2022/04/23 20:07:10;;;;;;;29.40;12.02;;;;;;;;;;10345103;28;20034;-72
2022/04/23 20:12:13;;;;;;;27.77;10.10;;;;;;;;;;10364254;28;20038;-71
2022/04/23 20:17:16;;;;;;;28.40;11.20;;;;;;;;;;10347519;28;20536;-72
2022/04/23 20:22:24;;;;;;;28.33;11.77;;;;;;;;;;10354156;28;20100;-71
2022/04/23 20:27:28;;;;;;;31.30;11.52;;;;;;;;;;10333054;28;20049;-73
2022/04/23 20:32:31;;;;;;;18.13;6.70;;;;;;;;;;10358355;28;20116;-71
2022/04/23 20:42:55;;;;;;;29.63;11.98;;;;;;;;;;10380202;28;20026;-72
2022/04/23 20:47:58;;;;;;;17.08;7.15;;;;;;;;;;10355467;28;20571;-71
2022/04/23 20:53:13;;;;;;;38.85;13.80;;;;;;;;;;10374329;28;20053;-70
2022/04/23 20:58:16;;;;;;;30.83;10.82;;;;;;;;;;10366590;28;20037;-72
2022/04/23 21:03:21;;;;;;;35.92;13.63;;;;;;;;;;10347243;28;20092;-70
2022/04/23 21:08:34;;;;;;;38.38;13.48;;;;;;;;;;10371270;28;20133;-71
2022/04/23 21:13:37;;;;;;;32.25;11.90;;;;;;;;;;10349425;28;20395;-72
2022/04/23 21:18:40;;;;;;;35.40;12.73;;;;;;;;;;10345495;28;20038;-70
2022/04/23 21:23:44;;;;;;;30.60;11.33;;;;;;;;;;10361758;28;549039;-71
2022/04/23 21:28:47;;;;;;;33.08;12.93;;;;;;;;;;10353410;28;20033;-73
2022/04/23 21:33:50;;;;;;;22.23;9.35;;;;;;;;;;10356682;28;20030;-72
2022/04/23 21:38:54;;;;;;;25.10;10.43;;;;;;;;;;10367644;28;20042;-72
2022/04/23 21:49:17;;;;;;;35.42;12.80;;;;;;;;;;10408115;22;20473;-71
2022/04/23 21:54:21;;;;;;;37.95;13.80;;;;;;;;;;10477348;28;20128;-72
2022/04/23 21:59:24;;;;;;;29.65;11.90;;;;;;;;;;10477159;28;20051;-71
2022/04/23 22:04:27;;;;;;;32.92;12.80;;;;;;;;;;10422691;28;20098;-72
2022/04/23 22:09:32;;;;;;;37.35;12.82;;;;;;;;;;10428886;28;20468;-72
2022/04/23 22:14:35;;;;;;;32.45;11.70;;;;;;;;;;10437228;28;20051;-72
2022/04/23 22:19:38;;;;;;;31.75;11.98;;;;;;;;;;10437140;28;20096;-72
2022/04/23 22:24:42;;;;;;;24.02;10.05;;;;;;;;;;10422321;28;20052;-72
2022/04/23 22:29:46;;;;;;;32.25;11.98;;;;;;;;;;10438254;28;20059;-71
2022/04/23 22:34:49;;;;;;;26.07;9.87;;;;;;;;;;10437189;28;20131;-72
2022/04/23 22:39:53;;;;;;;35.55;13.23;;;;;;;;;;10442433;28;20316;-72
2022/04/23 22:44:56;;;;;;;33.58;12.48;;;;;;;;;;10416496;28;20060;-71
2022/04/23 22:49:59;;;;;;;37.22;14.27;;;;;;;;;;10440471;28;20450;-71
2022/04/23 22:55:03;;;;;;;31.40;10.93;;;;;;;;;;10438342;28;20044;-70
2022/04/23 23:00:07;;;;;;;23.88;10.35;;;;;;;;;;10438320;28;20041;-71
2022/04/23 23:05:10;;;;;;;35.65;13.82;;;;;;;;;;10432994;28;20029;-71
2022/04/23 23:10:14;;;;;;;36.58;13.40;;;;;;;;;;10440213;28;20049;-71
2022/04/23 23:15:17;;;;;;;36.20;14.43;;;;;;;;;;10439557;28;20124;-70
2022/04/23 23:20:20;;;;;;;37.23;14.27;;;;;;;;;;10420958;28;20039;-70
2022/04/23 23:25:26;;;;;;;32.00;12.23;;;;;;;;;;10433826;28;20443;-71
2022/04/23 23:30:28;;;;;;;;;;;;;;;;;;10417251;28;20057;-71
2022/04/23 23:35:31;;;;;;;37.17;12.95;;;;;;;;;;10420286;28;19948;-71
2022/04/23 23:40:35;;;;;;;37.05;14.00;;;;;;;;;;10437383;28;20033;-70
2022/04/23 23:45:39;;;;;;;36.72;13.30;;;;;;;;;;10429266;28;20037;-71
2022/04/23 23:50:42;;;;;;;34.28;13.52;;;;;;;;;;10412201;28;20390;-71
2022/04/23 23:55:46;;;;;;;36.42;13.70;;;;;;;;;;10432353;28;20071;-71
